FDX14 ENGM-EDDK
Flight info
| Callsign | FDX14 |
|---|---|
| Flight time | 1h 36m |
| Altitude | 35000 |
| Route | VIPPA DCT ARTOR DCT AAL P615 ALS M852 ALASA DCT KEGAB DCT NIE DCT LARBU Z189 RUNER T858 KOPAG KOPAG1C |
| Aircraft | B77L/H-SDE1E2E3FGHIJ2J3J4J5M1RWXY/LB1D1 |
Departure
| Time | 2026-05-06 16:41 |
|---|---|
| Airport | Oslo-Gardermoen International Airport (ENGM) |
Arrival
| Time | 2026-05-06 18:17 |
|---|---|
| Airport | Cologne Bonn Airport (EDDK) |
| Time | Latitude | Longitude | Altitude | Speed | Heading |
|---|---|---|---|---|---|
| 2026-05-06 15:37 | 60.19122 | 11.08514 | 682 ft | 0 kts | 106° |
| 2026-05-06 16:24 | 60.19122 | 11.08513 | 682 ft | 0 kts | 106° |
| 2026-05-06 16:27 | 60.19122 | 11.08512 | 682 ft | 3 kts | 106° |
| 2026-05-06 16:27 | 60.19128 | 11.08476 | 681 ft | 2 kts | 106° |
| 2026-05-06 16:27 | 60.19132 | 11.08447 | 680 ft | 2 kts | 106° |
| 2026-05-06 16:27 | 60.19136 | 11.08418 | 679 ft | 2 kts | 106° |
| 2026-05-06 16:28 | 60.19140 | 11.08388 | 679 ft | 2 kts | 106° |
| 2026-05-06 16:28 | 60.19144 | 11.08360 | 678 ft | 2 kts | 106° |
| 2026-05-06 16:28 | 60.19146 | 11.08330 | 678 ft | 2 kts | 72° |
| 2026-05-06 16:28 | 60.19139 | 11.08305 | 677 ft | 2 kts | 37° |
| 2026-05-06 16:29 | 60.19126 | 11.08293 | 677 ft | 2 kts | 11° |
| 2026-05-06 16:29 | 60.19117 | 11.08289 | 677 ft | 0 kts | 12° |
| 2026-05-06 16:29 | 60.19134 | 11.08299 | 677 ft | 3 kts | 18° |
| 2026-05-06 16:29 | 60.19141 | 11.08304 | 677 ft | 0 kts | 17° |
| 2026-05-06 16:32 | 60.19145 | 11.08306 | 677 ft | 1 kts | 17° |
| 2026-05-06 16:32 | 60.19162 | 11.08317 | 677 ft | 3 kts | 16° |
| 2026-05-06 16:32 | 60.19193 | 11.08335 | 678 ft | 5 kts | 16° |
| 2026-05-06 16:33 | 60.19239 | 11.08361 | 678 ft | 7 kts | 16° |
| 2026-05-06 16:33 | 60.19297 | 11.08395 | 679 ft | 9 kts | 16° |
| 2026-05-06 16:33 | 60.19366 | 11.08435 | 681 ft | 9 kts | 16° |
| 2026-05-06 16:34 | 60.19502 | 11.08512 | 684 ft | 11 kts | 15° |
| 2026-05-06 16:34 | 60.19581 | 11.08556 | 686 ft | 12 kts | 15° |
| 2026-05-06 16:34 | 60.19659 | 11.08600 | 689 ft | 10 kts | 15° |
| 2026-05-06 16:34 | 60.19731 | 11.08639 | 692 ft | 10 kts | 15° |
| 2026-05-06 16:35 | 60.19804 | 11.08684 | 694 ft | 11 kts | 18° |
| 2026-05-06 16:35 | 60.19882 | 11.08732 | 694 ft | 12 kts | 17° |
| 2026-05-06 16:35 | 60.20007 | 11.08808 | 694 ft | 15 kts | 15° |
| 2026-05-06 16:35 | 60.20079 | 11.08847 | 694 ft | 16 kts | 16° |
| 2026-05-06 16:36 | 60.20194 | 11.08908 | 694 ft | 18 kts | 14° |
| 2026-05-06 16:36 | 60.20323 | 11.08984 | 691 ft | 20 kts | 12° |
| 2026-05-06 16:36 | 60.20464 | 11.09067 | 691 ft | 21 kts | 16° |
| 2026-05-06 16:36 | 60.20610 | 11.09153 | 691 ft | 21 kts | 15° |
| 2026-05-06 16:37 | 60.20748 | 11.09231 | 691 ft | 19 kts | 17° |
| 2026-05-06 16:37 | 60.20871 | 11.09303 | 693 ft | 16 kts | 16° |
| 2026-05-06 16:37 | 60.20976 | 11.09362 | 694 ft | 14 kts | 15° |
| 2026-05-06 16:37 | 60.21070 | 11.09417 | 696 ft | 13 kts | 16° |
| 2026-05-06 16:38 | 60.21161 | 11.09469 | 697 ft | 13 kts | 16° |
| 2026-05-06 16:38 | 60.21252 | 11.09521 | 698 ft | 13 kts | 15° |
| 2026-05-06 16:38 | 60.21336 | 11.09568 | 700 ft | 12 kts | 16° |
| 2026-05-06 16:38 | 60.21415 | 11.09615 | 702 ft | 11 kts | 16° |
| 2026-05-06 16:39 | 60.21492 | 11.09631 | 703 ft | 11 kts | 344° |
| 2026-05-06 16:39 | 60.21551 | 11.09496 | 697 ft | 15 kts | 289° |
| 2026-05-06 16:39 | 60.21576 | 11.09279 | 697 ft | 16 kts | 283° |
| 2026-05-06 16:39 | 60.21531 | 11.09122 | 697 ft | 11 kts | 197° |
| 2026-05-06 16:40 | 60.21479 | 11.09091 | 697 ft | 7 kts | 197° |
| 2026-05-06 16:40 | 60.21346 | 11.09013 | 697 ft | 46 kts | 196° |
| 2026-05-06 16:40 | 60.20783 | 11.08685 | 691 ft | 123 kts | 196° |
| 2026-05-06 16:40 | 60.19742 | 11.08090 | 795 ft | 178 kts | 198° |
| 2026-05-06 16:41 | 60.18533 | 11.07362 | 1529 ft | 185 kts | 198° |
| 2026-05-06 16:41 | 60.17330 | 11.06617 | 2268 ft | 193 kts | 206° |
| 2026-05-06 16:41 | 60.16220 | 11.04802 | 2487 ft | 220 kts | 237° |
| 2026-05-06 16:41 | 60.15562 | 11.01959 | 3123 ft | 234 kts | 248° |
| 2026-05-06 16:42 | 60.14929 | 10.98826 | 3843 ft | 246 kts | 248° |
| 2026-05-06 16:42 | 60.14317 | 10.95795 | 4941 ft | 242 kts | 248° |
| 2026-05-06 16:42 | 60.13608 | 10.92638 | 5516 ft | 259 kts | 244° |
| 2026-05-06 16:42 | 60.12811 | 10.89426 | 6451 ft | 261 kts | 245° |
| 2026-05-06 16:43 | 60.12027 | 10.86122 | 7349 ft | 265 kts | 245° |
| 2026-05-06 16:43 | 60.11007 | 10.83104 | 8244 ft | 268 kts | 222° |
| 2026-05-06 16:43 | 60.09393 | 10.81299 | 9037 ft | 275 kts | 197° |
| 2026-05-06 16:43 | 60.07537 | 10.80446 | 9916 ft | 278 kts | 194° |
| 2026-05-06 16:44 | 60.05622 | 10.79676 | 10531 ft | 289 kts | 194° |
| 2026-05-06 16:44 | 60.03607 | 10.78871 | 11014 ft | 305 kts | 194° |
| 2026-05-06 16:44 | 60.01467 | 10.78017 | 11509 ft | 321 kts | 194° |
| 2026-05-06 16:44 | 59.99220 | 10.77121 | 12026 ft | 337 kts | 195° |
| 2026-05-06 16:45 | 59.96111 | 10.75883 | 12781 ft | 356 kts | 195° |
| 2026-05-06 16:45 | 59.94469 | 10.75231 | 13162 ft | 366 kts | 195° |
| 2026-05-06 16:45 | 59.91927 | 10.74224 | 13890 ft | 376 kts | 196° |
| 2026-05-06 16:45 | 59.89381 | 10.73221 | 14882 ft | 379 kts | 196° |
| 2026-05-06 16:46 | 59.86812 | 10.72211 | 15928 ft | 381 kts | 197° |
| 2026-05-06 16:46 | 59.84221 | 10.71194 | 16943 ft | 383 kts | 197° |
| 2026-05-06 16:46 | 59.81595 | 10.70163 | 17875 ft | 388 kts | 198° |
| 2026-05-06 16:46 | 59.78981 | 10.69140 | 18809 ft | 390 kts | 198° |
| 2026-05-06 16:47 | 59.76318 | 10.68098 | 19697 ft | 395 kts | 198° |
| 2026-05-06 16:47 | 59.73694 | 10.67072 | 20473 ft | 401 kts | 198° |
| 2026-05-06 16:47 | 59.70953 | 10.66004 | 21373 ft | 404 kts | 198° |
| 2026-05-06 16:47 | 59.68205 | 10.64934 | 22174 ft | 409 kts | 198° |
| 2026-05-06 16:48 | 59.65399 | 10.63843 | 22925 ft | 414 kts | 198° |
| 2026-05-06 16:48 | 59.62588 | 10.62752 | 23674 ft | 418 kts | 198° |
| 2026-05-06 16:48 | 59.59742 | 10.61650 | 24397 ft | 423 kts | 198° |
| 2026-05-06 16:48 | 59.56839 | 10.60529 | 25100 ft | 426 kts | 198° |
| 2026-05-06 16:49 | 59.53929 | 10.59407 | 25822 ft | 428 kts | 198° |
| 2026-05-06 16:49 | 59.51019 | 10.58289 | 26515 ft | 431 kts | 198° |
| 2026-05-06 16:49 | 59.48078 | 10.57159 | 27125 ft | 435 kts | 198° |
| 2026-05-06 16:49 | 59.45104 | 10.56019 | 27784 ft | 438 kts | 198° |
| 2026-05-06 16:50 | 59.42114 | 10.54876 | 28493 ft | 440 kts | 198° |
| 2026-05-06 16:50 | 59.39101 | 10.53726 | 29216 ft | 442 kts | 198° |
| 2026-05-06 16:50 | 59.36064 | 10.52571 | 30002 ft | 442 kts | 198° |
| 2026-05-06 16:50 | 59.33012 | 10.51415 | 31027 ft | 436 kts | 198° |
| 2026-05-06 16:51 | 59.30015 | 10.50284 | 31999 ft | 429 kts | 198° |
| 2026-05-06 16:51 | 59.27025 | 10.49153 | 32606 ft | 428 kts | 198° |
| 2026-05-06 16:51 | 59.24011 | 10.48012 | 32976 ft | 432 kts | 197° |
| 2026-05-06 16:51 | 59.21031 | 10.46886 | 33347 ft | 435 kts | 198° |
| 2026-05-06 16:52 | 59.17992 | 10.45741 | 33823 ft | 436 kts | 197° |
| 2026-05-06 16:52 | 59.15032 | 10.44630 | 34313 ft | 435 kts | 198° |
| 2026-05-06 16:52 | 59.12021 | 10.43500 | 34731 ft | 436 kts | 197° |
| 2026-05-06 16:52 | 59.09033 | 10.42380 | 34895 ft | 439 kts | 197° |
| 2026-05-06 16:53 | 59.06048 | 10.41265 | 34928 ft | 437 kts | 197° |
| 2026-05-06 16:53 | 59.00114 | 10.39055 | 34931 ft | 434 kts | 197° |
| 2026-05-06 16:54 | 58.94201 | 10.36859 | 34934 ft | 435 kts | 197° |
| 2026-05-06 16:54 | 58.88242 | 10.34665 | 34932 ft | 435 kts | 196° |
| 2026-05-06 16:55 | 58.82300 | 10.32491 | 34944 ft | 437 kts | 196° |
| 2026-05-06 16:55 | 58.76365 | 10.30329 | 34942 ft | 434 kts | 196° |
| 2026-05-06 16:56 | 58.70423 | 10.28169 | 34951 ft | 435 kts | 196° |
| 2026-05-06 16:56 | 58.64507 | 10.26028 | 34951 ft | 434 kts | 196° |
| 2026-05-06 16:57 | 58.57615 | 10.23541 | 34934 ft | 435 kts | 196° |
| 2026-05-06 16:57 | 58.52664 | 10.21760 | 34956 ft | 436 kts | 196° |
| 2026-05-06 16:58 | 58.46731 | 10.19635 | 34941 ft | 434 kts | 196° |
| 2026-05-06 16:58 | 58.40756 | 10.17500 | 34950 ft | 437 kts | 196° |
| 2026-05-06 16:59 | 58.34842 | 10.15397 | 34973 ft | 435 kts | 195° |
| 2026-05-06 16:59 | 58.28812 | 10.14284 | 34963 ft | 439 kts | 189° |
| 2026-05-06 17:00 | 58.22687 | 10.13506 | 34960 ft | 439 kts | 189° |
| 2026-05-06 17:00 | 58.16610 | 10.12733 | 34957 ft | 438 kts | 189° |
| 2026-05-06 17:01 | 58.10521 | 10.11958 | 34957 ft | 441 kts | 189° |
| 2026-05-06 17:01 | 58.04422 | 10.11184 | 34954 ft | 440 kts | 189° |
| 2026-05-06 17:02 | 57.98318 | 10.10412 | 34958 ft | 441 kts | 189° |
| 2026-05-06 17:02 | 57.92194 | 10.09639 | 34947 ft | 440 kts | 189° |
| 2026-05-06 17:03 | 57.86088 | 10.08871 | 34953 ft | 441 kts | 189° |
| 2026-05-06 17:03 | 57.79992 | 10.08107 | 34954 ft | 440 kts | 189° |
| 2026-05-06 17:04 | 57.73915 | 10.07348 | 34952 ft | 440 kts | 189° |
| 2026-05-06 17:04 | 57.67798 | 10.06586 | 34952 ft | 440 kts | 189° |
| 2026-05-06 17:05 | 57.61720 | 10.05831 | 34952 ft | 441 kts | 189° |
| 2026-05-06 17:05 | 57.55609 | 10.05075 | 34951 ft | 442 kts | 189° |
| 2026-05-06 17:06 | 57.49461 | 10.04317 | 34949 ft | 443 kts | 188° |
| 2026-05-06 17:06 | 57.43334 | 10.03564 | 34948 ft | 443 kts | 188° |
| 2026-05-06 17:07 | 57.37190 | 10.02812 | 34948 ft | 443 kts | 188° |
| 2026-05-06 17:07 | 57.31012 | 10.02058 | 34944 ft | 445 kts | 188° |
| 2026-05-06 17:08 | 57.24851 | 10.01309 | 34951 ft | 444 kts | 188° |
| 2026-05-06 17:08 | 57.18726 | 10.00567 | 34948 ft | 444 kts | 188° |
| 2026-05-06 17:09 | 57.12576 | 9.99823 | 34953 ft | 445 kts | 188° |
| 2026-05-06 17:09 | 57.06360 | 9.99389 | 34954 ft | 448 kts | 184° |
| 2026-05-06 17:10 | 57.00151 | 9.99458 | 34959 ft | 449 kts | 184° |
| 2026-05-06 17:10 | 56.93912 | 9.99494 | 34953 ft | 449 kts | 184° |
| 2026-05-06 17:11 | 56.87698 | 9.99511 | 34957 ft | 448 kts | 184° |
| 2026-05-06 17:11 | 56.81446 | 9.99516 | 34947 ft | 448 kts | 184° |
| 2026-05-06 17:12 | 56.75222 | 9.99515 | 34952 ft | 449 kts | 184° |
| 2026-05-06 17:12 | 56.68980 | 9.99512 | 34954 ft | 448 kts | 184° |
| 2026-05-06 17:13 | 56.62778 | 9.99507 | 34944 ft | 449 kts | 184° |
| 2026-05-06 17:13 | 56.56553 | 9.99502 | 34950 ft | 448 kts | 184° |
| 2026-05-06 17:14 | 56.50309 | 9.99495 | 34961 ft | 449 kts | 184° |
| 2026-05-06 17:14 | 56.44069 | 9.99487 | 34951 ft | 449 kts | 184° |
| 2026-05-06 17:15 | 56.37812 | 9.99479 | 34942 ft | 448 kts | 184° |
| 2026-05-06 17:15 | 56.31608 | 9.99471 | 34939 ft | 449 kts | 184° |
| 2026-05-06 17:16 | 56.25396 | 9.99464 | 34927 ft | 449 kts | 184° |
| 2026-05-06 17:16 | 56.19112 | 9.99455 | 34938 ft | 450 kts | 184° |
| 2026-05-06 17:17 | 56.12897 | 9.99448 | 34928 ft | 450 kts | 184° |
| 2026-05-06 17:17 | 56.06640 | 9.99443 | 34927 ft | 450 kts | 183° |
| 2026-05-06 17:18 | 56.00365 | 9.99443 | 34923 ft | 451 kts | 183° |
| 2026-05-06 17:18 | 55.94077 | 9.99443 | 34929 ft | 450 kts | 183° |
| 2026-05-06 17:19 | 55.87786 | 9.99438 | 34929 ft | 451 kts | 183° |
| 2026-05-06 17:19 | 55.81552 | 9.99433 | 34930 ft | 449 kts | 183° |
| 2026-05-06 17:20 | 55.75240 | 9.99428 | 34931 ft | 451 kts | 183° |
| 2026-05-06 17:20 | 55.68977 | 9.99424 | 34931 ft | 451 kts | 183° |
| 2026-05-06 17:21 | 55.62733 | 9.99419 | 34930 ft | 452 kts | 183° |
| 2026-05-06 17:21 | 55.56472 | 9.99414 | 34931 ft | 451 kts | 183° |
| 2026-05-06 17:22 | 55.50212 | 9.99406 | 34929 ft | 452 kts | 183° |
| 2026-05-06 17:22 | 55.43927 | 9.99397 | 34931 ft | 453 kts | 182° |
| 2026-05-06 17:23 | 55.37635 | 9.99390 | 34922 ft | 452 kts | 182° |
| 2026-05-06 17:23 | 55.31348 | 9.99382 | 34915 ft | 454 kts | 182° |
| 2026-05-06 17:24 | 55.25045 | 9.99375 | 34913 ft | 454 kts | 182° |
| 2026-05-06 17:24 | 55.18709 | 9.99368 | 34910 ft | 455 kts | 182° |
| 2026-05-06 17:25 | 55.12383 | 9.99361 | 34907 ft | 455 kts | 182° |
| 2026-05-06 17:25 | 55.06084 | 9.99355 | 34914 ft | 454 kts | 182° |
| 2026-05-06 17:26 | 54.99776 | 9.99348 | 34913 ft | 455 kts | 182° |
| 2026-05-06 17:26 | 54.93440 | 9.99341 | 34910 ft | 455 kts | 182° |
| 2026-05-06 17:27 | 54.87174 | 9.98246 | 34903 ft | 453 kts | 192° |
| 2026-05-06 17:27 | 54.81115 | 9.96264 | 34901 ft | 431 kts | 192° |
| 2026-05-06 17:27 | 54.78225 | 9.95364 | 34901 ft | 416 kts | 192° |
| 2026-05-06 17:28 | 54.75458 | 9.94548 | 34896 ft | 401 kts | 192° |
| 2026-05-06 17:28 | 54.72751 | 9.93751 | 34891 ft | 385 kts | 192° |
| 2026-05-06 17:28 | 54.70183 | 9.93011 | 34890 ft | 370 kts | 191° |
| 2026-05-06 17:29 | 54.65107 | 9.91595 | 34895 ft | 371 kts | 191° |
| 2026-05-06 17:29 | 54.60101 | 9.90204 | 34895 ft | 362 kts | 191° |
| 2026-05-06 17:30 | 54.55116 | 9.88821 | 34905 ft | 365 kts | 191° |
| 2026-05-06 17:30 | 54.50128 | 9.87440 | 34893 ft | 365 kts | 191° |
| 2026-05-06 17:31 | 54.45106 | 9.86054 | 34892 ft | 364 kts | 191° |
| 2026-05-06 17:31 | 54.40123 | 9.84682 | 34904 ft | 365 kts | 191° |
| 2026-05-06 17:32 | 54.35086 | 9.83298 | 34896 ft | 365 kts | 191° |
| 2026-05-06 17:32 | 54.30108 | 9.81934 | 34901 ft | 366 kts | 191° |
| 2026-05-06 17:33 | 54.25098 | 9.80564 | 34897 ft | 367 kts | 191° |
| 2026-05-06 17:33 | 54.20039 | 9.79185 | 34892 ft | 366 kts | 191° |
| 2026-05-06 17:34 | 54.15022 | 9.77820 | 34885 ft | 366 kts | 191° |
| 2026-05-06 17:34 | 54.09993 | 9.76455 | 34894 ft | 368 kts | 191° |
| 2026-05-06 17:35 | 54.04951 | 9.75091 | 34879 ft | 366 kts | 191° |
| 2026-05-06 17:35 | 53.99933 | 9.73736 | 34878 ft | 366 kts | 191° |
| 2026-05-06 17:36 | 53.92413 | 9.71711 | 34896 ft | 367 kts | 191° |
| 2026-05-06 17:36 | 53.87363 | 9.70356 | 34891 ft | 368 kts | 191° |
| 2026-05-06 17:37 | 53.82298 | 9.69000 | 34900 ft | 368 kts | 191° |
| 2026-05-06 17:37 | 53.77245 | 9.67651 | 34893 ft | 367 kts | 191° |
| 2026-05-06 17:38 | 53.72230 | 9.66315 | 34882 ft | 367 kts | 191° |
| 2026-05-06 17:38 | 53.67176 | 9.64972 | 34895 ft | 367 kts | 191° |
| 2026-05-06 17:39 | 53.62139 | 9.63637 | 34887 ft | 367 kts | 191° |
| 2026-05-06 17:39 | 53.57108 | 9.62306 | 34887 ft | 367 kts | 191° |
| 2026-05-06 17:40 | 53.52036 | 9.60968 | 34879 ft | 367 kts | 191° |
| 2026-05-06 17:40 | 53.47017 | 9.59647 | 34889 ft | 368 kts | 191° |
| 2026-05-06 17:41 | 53.41974 | 9.58323 | 34878 ft | 367 kts | 191° |
| 2026-05-06 17:41 | 53.36924 | 9.57000 | 34876 ft | 368 kts | 191° |
| 2026-05-06 17:42 | 53.31885 | 9.55683 | 34869 ft | 368 kts | 191° |
| 2026-05-06 17:42 | 53.26828 | 9.54365 | 34871 ft | 369 kts | 191° |
| 2026-05-06 17:43 | 53.21777 | 9.53051 | 34865 ft | 369 kts | 191° |
| 2026-05-06 17:43 | 53.16697 | 9.51733 | 34853 ft | 368 kts | 191° |
| 2026-05-06 17:44 | 53.11636 | 9.50423 | 34864 ft | 368 kts | 191° |
| 2026-05-06 17:44 | 53.06585 | 9.49119 | 34848 ft | 368 kts | 191° |
| 2026-05-06 17:45 | 53.01540 | 9.47819 | 34849 ft | 367 kts | 191° |
| 2026-05-06 17:45 | 52.95676 | 9.46313 | 34848 ft | 367 kts | 191° |
| 2026-05-06 17:46 | 52.91478 | 9.45236 | 34848 ft | 367 kts | 191° |
| 2026-05-06 17:46 | 52.86399 | 9.43937 | 34856 ft | 368 kts | 191° |
| 2026-05-06 17:47 | 52.81326 | 9.42642 | 34849 ft | 369 kts | 191° |
| 2026-05-06 17:47 | 52.76266 | 9.41353 | 34843 ft | 368 kts | 191° |
| 2026-05-06 17:48 | 52.71206 | 9.40068 | 34847 ft | 368 kts | 191° |
| 2026-05-06 17:48 | 52.66151 | 9.38786 | 34847 ft | 374 kts | 191° |
| 2026-05-06 17:49 | 52.60915 | 9.37458 | 34844 ft | 392 kts | 191° |
| 2026-05-06 17:49 | 52.55394 | 9.36050 | 34840 ft | 412 kts | 191° |
| 2026-05-06 17:50 | 52.49598 | 9.34576 | 34840 ft | 433 kts | 190° |
| 2026-05-06 17:50 | 52.43517 | 9.33034 | 34836 ft | 455 kts | 190° |
| 2026-05-06 17:51 | 52.37199 | 9.31439 | 34828 ft | 460 kts | 190° |
| 2026-05-06 17:51 | 52.30871 | 9.29847 | 34839 ft | 458 kts | 190° |
| 2026-05-06 17:52 | 52.24607 | 9.28274 | 34820 ft | 458 kts | 190° |
| 2026-05-06 17:52 | 52.18329 | 9.26702 | 34820 ft | 457 kts | 190° |
| 2026-05-06 17:53 | 52.12030 | 9.25129 | 34819 ft | 457 kts | 190° |
| 2026-05-06 17:53 | 52.05751 | 9.23565 | 34800 ft | 455 kts | 190° |
| 2026-05-06 17:54 | 52.02650 | 9.22796 | 34372 ft | 453 kts | 190° |
| 2026-05-06 17:54 | 51.99527 | 9.22020 | 33719 ft | 457 kts | 190° |
| 2026-05-06 17:54 | 51.96397 | 9.21243 | 32974 ft | 463 kts | 190° |
| 2026-05-06 17:54 | 51.93251 | 9.20157 | 32008 ft | 469 kts | 198° |
| 2026-05-06 17:55 | 51.90168 | 9.18220 | 31078 ft | 471 kts | 207° |
| 2026-05-06 17:55 | 51.87355 | 9.15518 | 30243 ft | 470 kts | 217° |
| 2026-05-06 17:55 | 51.84926 | 9.12192 | 29804 ft | 461 kts | 225° |
| 2026-05-06 17:55 | 51.82086 | 9.07149 | 29176 ft | 452 kts | 229° |
| 2026-05-06 17:56 | 51.80699 | 9.04595 | 28829 ft | 448 kts | 229° |
| 2026-05-06 17:56 | 51.78667 | 9.00847 | 28306 ft | 443 kts | 229° |
| 2026-05-06 17:56 | 51.76664 | 8.97150 | 27791 ft | 438 kts | 229° |
| 2026-05-06 17:56 | 51.74688 | 8.93505 | 27266 ft | 433 kts | 229° |
| 2026-05-06 17:57 | 51.72704 | 8.89848 | 26750 ft | 427 kts | 229° |
| 2026-05-06 17:57 | 51.70777 | 8.86299 | 26230 ft | 423 kts | 229° |
| 2026-05-06 17:57 | 51.68835 | 8.82725 | 25687 ft | 418 kts | 230° |
| 2026-05-06 17:57 | 51.66316 | 8.78094 | 24995 ft | 412 kts | 229° |
| 2026-05-06 17:58 | 51.65065 | 8.75798 | 24643 ft | 412 kts | 230° |
| 2026-05-06 17:58 | 51.63169 | 8.72321 | 24109 ft | 424 kts | 229° |
| 2026-05-06 17:58 | 51.61010 | 8.69017 | 23538 ft | 426 kts | 219° |
| 2026-05-06 17:58 | 51.58558 | 8.66387 | 22985 ft | 423 kts | 212° |
| 2026-05-06 17:59 | 51.56022 | 8.64081 | 22433 ft | 419 kts | 211° |
| 2026-05-06 17:59 | 51.53517 | 8.61833 | 21879 ft | 415 kts | 211° |
| 2026-05-06 17:59 | 51.51022 | 8.59597 | 21330 ft | 411 kts | 211° |
| 2026-05-06 17:59 | 51.48544 | 8.57379 | 20782 ft | 408 kts | 211° |
| 2026-05-06 18:00 | 51.45273 | 8.54453 | 20202 ft | 399 kts | 211° |
| 2026-05-06 18:00 | 51.43661 | 8.53012 | 20055 ft | 398 kts | 211° |
| 2026-05-06 18:00 | 51.41259 | 8.50867 | 20032 ft | 401 kts | 211° |
| 2026-05-06 18:00 | 51.38805 | 8.48677 | 20031 ft | 401 kts | 211° |
| 2026-05-06 18:01 | 51.36387 | 8.46523 | 20028 ft | 401 kts | 211° |
| 2026-05-06 18:01 | 51.33961 | 8.44364 | 20027 ft | 400 kts | 211° |
| 2026-05-06 18:01 | 51.31520 | 8.42194 | 19922 ft | 400 kts | 211° |
| 2026-05-06 18:01 | 51.29228 | 8.39813 | 19703 ft | 392 kts | 220° |
| 2026-05-06 18:02 | 51.27267 | 8.36867 | 19121 ft | 389 kts | 230° |
| 2026-05-06 18:02 | 51.25665 | 8.33394 | 18127 ft | 396 kts | 239° |
| 2026-05-06 18:02 | 51.24260 | 8.29564 | 16998 ft | 407 kts | 241° |
| 2026-05-06 18:02 | 51.22854 | 8.25663 | 16163 ft | 409 kts | 241° |
| 2026-05-06 18:03 | 51.21444 | 8.21763 | 15613 ft | 402 kts | 240° |
| 2026-05-06 18:03 | 51.20078 | 8.18000 | 15045 ft | 396 kts | 240° |
| 2026-05-06 18:03 | 51.18697 | 8.14208 | 14307 ft | 395 kts | 241° |
| 2026-05-06 18:03 | 51.16869 | 8.09202 | 13336 ft | 392 kts | 241° |
| 2026-05-06 18:04 | 51.15966 | 8.06735 | 12861 ft | 391 kts | 241° |
| 2026-05-06 18:04 | 51.14600 | 8.03009 | 12122 ft | 390 kts | 241° |
| 2026-05-06 18:04 | 51.13235 | 7.99290 | 11371 ft | 388 kts | 241° |
| 2026-05-06 18:04 | 51.11890 | 7.95632 | 10733 ft | 384 kts | 241° |
| 2026-05-06 18:05 | 51.10563 | 7.92033 | 10451 ft | 370 kts | 241° |
| 2026-05-06 18:05 | 51.09279 | 7.88558 | 10198 ft | 357 kts | 241° |
| 2026-05-06 18:05 | 51.08055 | 7.85247 | 9954 ft | 345 kts | 241° |
| 2026-05-06 18:05 | 51.06885 | 7.81998 | 9831 ft | 328 kts | 247° |
| 2026-05-06 18:06 | 51.06182 | 7.78665 | 9824 ft | 308 kts | 257° |
| 2026-05-06 18:06 | 51.05705 | 7.75453 | 9828 ft | 292 kts | 259° |
| 2026-05-06 18:06 | 51.05276 | 7.72378 | 9834 ft | 283 kts | 259° |
| 2026-05-06 18:06 | 51.04662 | 7.69409 | 9819 ft | 284 kts | 241° |
| 2026-05-06 18:07 | 51.03337 | 7.67115 | 9831 ft | 290 kts | 218° |
| 2026-05-06 18:07 | 51.01622 | 7.65357 | 9789 ft | 293 kts | 214° |
| 2026-05-06 18:07 | 50.99884 | 7.63694 | 9549 ft | 292 kts | 214° |
| 2026-05-06 18:07 | 50.98150 | 7.62043 | 9300 ft | 289 kts | 213° |
| 2026-05-06 18:08 | 50.96434 | 7.60404 | 8955 ft | 288 kts | 213° |
| 2026-05-06 18:08 | 50.94738 | 7.58781 | 8537 ft | 288 kts | 213° |
| 2026-05-06 18:08 | 50.93037 | 7.57153 | 8199 ft | 285 kts | 214° |
| 2026-05-06 18:08 | 50.91353 | 7.55543 | 7856 ft | 283 kts | 214° |
| 2026-05-06 18:09 | 50.89664 | 7.53928 | 7400 ft | 283 kts | 213° |
| 2026-05-06 18:09 | 50.87991 | 7.52333 | 6986 ft | 281 kts | 214° |
| 2026-05-06 18:09 | 50.86337 | 7.50763 | 6585 ft | 278 kts | 213° |
| 2026-05-06 18:09 | 50.84680 | 7.49190 | 6146 ft | 277 kts | 213° |
| 2026-05-06 18:10 | 50.83016 | 7.47684 | 5589 ft | 277 kts | 207° |
| 2026-05-06 18:10 | 50.81272 | 7.46525 | 5352 ft | 264 kts | 204° |
| 2026-05-06 18:10 | 50.79617 | 7.45504 | 5255 ft | 247 kts | 204° |
| 2026-05-06 18:10 | 50.78064 | 7.44563 | 5129 ft | 233 kts | 204° |
| 2026-05-06 18:11 | 50.76534 | 7.43638 | 4487 ft | 243 kts | 203° |
| 2026-05-06 18:11 | 50.74948 | 7.42660 | 4010 ft | 243 kts | 204° |
| 2026-05-06 18:11 | 50.73398 | 7.41648 | 3519 ft | 243 kts | 211° |
| 2026-05-06 18:11 | 50.72196 | 7.39874 | 3034 ft | 235 kts | 245° |
| 2026-05-06 18:12 | 50.71839 | 7.37558 | 2952 ft | 207 kts | 276° |
| 2026-05-06 18:12 | 50.72191 | 7.35536 | 2985 ft | 188 kts | 309° |
| 2026-05-06 18:12 | 50.73145 | 7.34174 | 2966 ft | 179 kts | 324° |
| 2026-05-06 18:12 | 50.74093 | 7.32970 | 2977 ft | 176 kts | 321° |
| 2026-05-06 18:13 | 50.75002 | 7.31679 | 2983 ft | 175 kts | 320° |
| 2026-05-06 18:13 | 50.75901 | 7.30382 | 2907 ft | 178 kts | 320° |
| 2026-05-06 18:13 | 50.76810 | 7.29073 | 2675 ft | 175 kts | 320° |
| 2026-05-06 18:13 | 50.77998 | 7.27370 | 2369 ft | 168 kts | 320° |
| 2026-05-06 18:14 | 50.78550 | 7.26575 | 2216 ft | 158 kts | 320° |
| 2026-05-06 18:14 | 50.79335 | 7.25450 | 2008 ft | 145 kts | 320° |
| 2026-05-06 18:14 | 50.80074 | 7.24390 | 1824 ft | 144 kts | 320° |
| 2026-05-06 18:14 | 50.80813 | 7.23327 | 1626 ft | 143 kts | 320° |
| 2026-05-06 18:15 | 50.81555 | 7.22260 | 1426 ft | 144 kts | 320° |
| 2026-05-06 18:15 | 50.82304 | 7.21224 | 1209 ft | 143 kts | 320° |
| 2026-05-06 18:15 | 50.83041 | 7.20178 | 1015 ft | 143 kts | 318° |
| 2026-05-06 18:15 | 50.84011 | 7.18728 | 800 ft | 145 kts | 319° |
| 2026-05-06 18:16 | 50.84512 | 7.18006 | 648 ft | 144 kts | 318° |
| 2026-05-06 18:16 | 50.85243 | 7.16957 | 433 ft | 144 kts | 318° |
| 2026-05-06 18:16 | 50.85977 | 7.15895 | 300 ft | 133 kts | 317° |
| 2026-05-06 18:16 | 50.86545 | 7.15078 | 281 ft | 89 kts | 317° |
| 2026-05-06 18:17 | 50.86893 | 7.14581 | 268 ft | 44 kts | 317° |
| 2026-05-06 18:17 | 50.87104 | 7.14269 | 262 ft | 40 kts | 318° |
| 2026-05-06 18:17 | 50.87281 | 7.13953 | 254 ft | 34 kts | 290° |
| 2026-05-06 18:17 | 50.87322 | 7.13676 | 250 ft | 21 kts | 280° |
| 2026-05-06 18:18 | 50.87328 | 7.13615 | 250 ft | 1 kts | 279° |
| 2026-05-06 18:18 | 50.87329 | 7.13608 | 250 ft | 0 kts | 279° |
| 2026-05-06 18:18 | 50.87330 | 7.13598 | 250 ft | 1 kts | 279° |
| 2026-05-06 18:18 | 50.87333 | 7.13567 | 250 ft | 3 kts | 279° |
| 2026-05-06 18:19 | 50.87339 | 7.13508 | 250 ft | 7 kts | 278° |
| 2026-05-06 18:19 | 50.87321 | 7.13425 | 250 ft | 9 kts | 213° |
| 2026-05-06 18:19 | 50.87262 | 7.13440 | 250 ft | 6 kts | 145° |
| 2026-05-06 18:19 | 50.87215 | 7.13434 | 250 ft | 8 kts | 218° |
| 2026-05-06 18:20 | 50.87188 | 7.13385 | 250 ft | 4 kts | 229° |
| 2026-05-06 18:20 | 50.87175 | 7.13361 | 250 ft | 0 kts | 228° |